createdAt,value
2023-01-28T00:00:54.325Z,305.10
2023-01-28T00:03:22.560Z,452.35
2023-01-28T00:05:50.234Z,429.20
2023-01-28T00:08:17.724Z,574.22
2023-01-28T00:10:45.331Z,393.60
2023-01-28T00:13:14.971Z,509.73
2023-01-28T00:15:42.795Z,651.80
2023-01-28T00:18:10.246Z,508.48
2023-01-28T00:20:37.877Z,566.85
2023-01-28T00:23:05.944Z,676.25
2023-01-28T00:25:33.555Z,327.05
2023-01-28T00:28:00.977Z,375.23
2023-01-28T00:30:28.520Z,543.17
2023-01-28T00:32:56.717Z,710.97
2023-01-28T00:35:24.291Z,231.63
2023-01-28T00:37:51.737Z,727.80
2023-01-28T00:40:20.521Z,574.08
2023-01-28T00:42:47.930Z,372.50
2023-01-28T00:45:15.922Z,311.88
2023-01-28T00:47:45.413Z,281.08
2023-01-28T00:50:13.085Z,158.82
2023-01-28T00:52:41.047Z,297.88
2023-01-28T00:55:08.887Z,316.55
2023-01-28T00:57:36.334Z,538.40
2023-01-28T01:00:05.679Z,278.58
2023-01-28T01:02:33.575Z,375.65
2023-01-28T01:05:01.377Z,422.50
2023-01-28T01:07:42.213Z,690.13
2023-01-28T01:10:15.894Z,709.88
2023-01-28T01:12:46.803Z,667.38
2023-01-28T01:15:14.747Z,838.47
2023-01-28T01:17:44.513Z,733.90
2023-01-28T01:20:15.679Z,789.65
2023-01-28T01:22:43.304Z,882.35
2023-01-28T01:25:13.201Z,894.80
2023-01-28T01:27:42.533Z,975.33
2023-01-28T01:30:10.840Z,886.92
2023-01-28T01:32:38.796Z,726.80
2023-01-28T01:35:08.302Z,703.58
2023-01-28T01:37:37.134Z,537.15
2023-01-28T01:40:05.903Z,562.38
2023-01-28T01:42:34.313Z,663.38
2023-01-28T01:45:06.530Z,604.38
2023-01-28T01:47:55.652Z,289.42
2023-01-28T01:50:44.843Z,498.05
2023-01-28T01:53:17.976Z,250.27
2023-01-28T01:55:52.421Z,74.93
2023-01-28T01:58:24.349Z,83.75
2023-01-28T02:00:52.199Z,68.93
2023-01-28T02:03:29.212Z,76.10
2023-01-28T02:05:56.747Z,70.28
2023-01-28T02:08:25.778Z,79.90
2023-01-28T02:10:58.754Z,74.65
2023-01-28T02:13:31.865Z,73.00
2023-01-28T02:16:02.273Z,70.93
2023-01-28T02:18:29.786Z,72.35
2023-01-28T02:21:24.850Z,75.80
2023-01-28T02:24:30.368Z,70.20
2023-01-28T02:27:14.883Z,77.45
2023-01-28T02:30:08.018Z,77.28
2023-01-28T02:32:48.745Z,74.38
2023-01-28T02:35:26.735Z,87.28
2023-01-28T02:38:04.054Z,78.10
2023-01-28T02:40:56.190Z,69.25
2023-01-28T02:43:45.116Z,77.47
2023-01-28T02:46:46.499Z,77.97
2023-01-28T02:49:25.573Z,80.45
2023-01-28T02:52:09.167Z,77.93
2023-01-28T02:54:49.328Z,85.53
2023-01-28T02:57:39.411Z,80.22
2023-01-28T03:00:12.245Z,90.85
2023-01-28T03:02:54.369Z,84.80
2023-01-28T03:05:22.606Z,87.28
2023-01-28T03:07:51.369Z,101.03
2023-01-28T03:10:22.131Z,98.50
2023-01-28T03:13:12.602Z,90.57
2023-01-28T03:16:06.012Z,102.38
2023-01-28T03:19:10.373Z,94.45
2023-01-28T03:22:01.266Z,91.32
2023-01-28T03:25:01.782Z,86.43
2023-01-28T03:27:47.693Z,91.85
2023-01-28T03:30:46.677Z,87.13
2023-01-28T03:33:44.024Z,93.05
2023-01-28T03:36:30.724Z,72.97
2023-01-28T03:38:58.942Z,83.25
2023-01-28T03:41:26.919Z,81.50
2023-01-28T03:43:56.712Z,76.40
2023-01-28T03:46:24.422Z,82.22
2023-01-28T03:48:52.162Z,83.78
2023-01-28T03:51:19.972Z,77.35
2023-01-28T03:53:47.935Z,81.60
2023-01-28T03:56:19.758Z,77.10
2023-01-28T03:58:53.113Z,71.30
2023-01-28T04:03:49.267Z,80.68
2023-01-28T04:06:23.172Z,83.97
2023-01-28T04:09:10.920Z,78.03
2023-01-28T04:11:56.416Z,70.40
2023-01-28T04:14:30.753Z,69.88
2023-01-28T04:17:11.754Z,65.18
2023-01-28T04:19:40.481Z,66.18
2023-01-28T04:22:11.654Z,69.43
2023-01-28T04:24:40.780Z,68.93
2023-01-28T04:27:08.418Z,84.32
2023-01-28T04:29:36.157Z,80.30
2023-01-28T04:32:38.941Z,84.18
2023-01-28T04:35:25.211Z,78.30
2023-01-28T04:38:20.191Z,82.28
2023-01-28T04:40:55.141Z,73.65
2023-01-28T04:43:28.593Z,85.57
2023-01-28T04:46:14.542Z,96.00
2023-01-28T04:48:51.881Z,257.35
2023-01-28T04:51:19.448Z,240.13
2023-01-28T04:54:16.526Z,382.77
2023-01-28T04:56:44.363Z,143.55
2023-01-28T04:59:11.954Z,243.32
2023-01-28T05:01:39.977Z,543.05
2023-01-28T05:04:08.745Z,213.60
2023-01-28T05:06:38.927Z,286.38
2023-01-28T05:09:13.662Z,123.30
2023-01-28T05:11:41.706Z,211.35
2023-01-28T05:14:09.381Z,415.92
2023-01-28T05:16:44.586Z,123.50
2023-01-28T05:19:12.853Z,90.30
2023-01-28T05:24:37.464Z,83.22
2023-01-28T05:27:05.763Z,84.63
2023-01-28T05:29:33.745Z,74.28
2023-01-28T05:32:01.352Z,78.20
2023-01-28T05:34:30.026Z,59.33
2023-01-28T05:37:00.201Z,54.67
2023-01-28T05:39:37.534Z,54.30
2023-01-28T05:42:05.942Z,50.92
2023-01-28T05:44:36.553Z,45.95
2023-01-28T05:47:30.144Z,44.75
2023-01-28T05:50:26.766Z,43.45
2023-01-28T05:53:16.584Z,52.40
2023-01-28T05:55:53.677Z,41.08
2023-01-28T05:58:21.779Z,39.92
2023-01-28T06:00:49.249Z,45.00
2023-01-28T06:03:21.283Z,43.25
2023-01-28T06:05:49.098Z,50.33
2023-01-28T06:08:16.930Z,46.47
2023-01-28T06:10:44.441Z,42.80
2023-01-28T06:13:11.896Z,36.90
2023-01-28T06:15:59.887Z,40.88
2023-01-28T06:18:59.592Z,32.92
2023-01-28T06:21:29.968Z,29.13
2023-01-28T06:23:59.022Z,29.70
2023-01-28T06:26:26.542Z,30.58
2023-01-28T06:28:54.160Z,32.35
2023-01-28T06:31:21.692Z,29.70
2023-01-28T06:33:49.375Z,32.88
2023-01-28T06:36:16.826Z,28.50
2023-01-28T06:38:44.403Z,25.23
2023-01-28T06:41:11.953Z,31.27
2023-01-28T06:43:46.337Z,29.33
2023-01-28T06:46:14.126Z,26.15
2023-01-28T06:48:41.610Z,23.40
2023-01-28T06:51:09.202Z,23.83
2023-01-28T06:53:36.629Z,23.42
2023-01-28T06:56:04.454Z,22.80
2023-01-28T06:58:31.937Z,28.80
2023-01-28T07:00:59.468Z,26.55
2023-01-28T07:03:27.046Z,23.30
2023-01-28T07:05:54.573Z,20.42
2023-01-28T07:08:22.037Z,25.88
2023-01-28T07:10:49.863Z,21.65
2023-01-28T07:13:17.404Z,21.27
2023-01-28T07:15:44.924Z,20.10
2023-01-28T07:18:12.431Z,19.40
2023-01-28T07:20:39.909Z,24.90
2023-01-28T07:23:07.393Z,20.25
2023-01-28T07:25:35.006Z,21.05
2023-01-28T07:28:02.434Z,19.63
2023-01-28T07:30:30.041Z,17.55
2023-01-28T07:32:59.522Z,18.75
2023-01-28T07:35:27.494Z,18.33
2023-01-28T07:37:57.166Z,18.83
2023-01-28T07:40:25.753Z,20.00
2023-01-28T07:42:55.522Z,17.58
2023-01-28T07:45:25.377Z,15.88
2023-01-28T07:47:57.949Z,19.20
2023-01-28T07:50:26.608Z,18.30
2023-01-28T07:52:54.052Z,11.02
2023-01-28T07:55:22.379Z,15.48
2023-01-28T07:57:51.232Z,13.18
2023-01-28T08:00:19.915Z,18.05
2023-01-28T08:02:48.470Z,25.35
2023-01-28T08:05:21.070Z,22.17
2023-01-28T08:07:49.442Z,13.27
2023-01-28T08:10:18.282Z,12.93
2023-01-28T08:12:53.585Z,20.85
2023-01-28T08:15:21.727Z,12.27
2023-01-28T08:17:49.193Z,16.45
2023-01-28T08:20:17.886Z,14.13
2023-01-28T08:22:45.611Z,17.27
2023-01-28T08:25:13.705Z,19.63
2023-01-28T08:27:41.270Z,22.75
2023-01-28T08:30:10.208Z,16.30
2023-01-28T08:32:38.394Z,10.88
2023-01-28T08:35:07.954Z,10.48
2023-01-28T08:37:35.577Z,8.30
2023-01-28T08:40:03.172Z,16.52
2023-01-28T08:42:30.674Z,8.80
2023-01-28T08:44:58.262Z,10.52
2023-01-28T08:47:25.774Z,10.93
2023-01-28T08:49:53.294Z,11.63
2023-01-28T08:52:20.898Z,13.65
2023-01-28T08:54:48.313Z,9.73
2023-01-28T08:57:15.939Z,10.20
2023-01-28T08:59:46.322Z,12.57
2023-01-28T09:02:30.359Z,10.27
2023-01-28T09:04:58.606Z,11.10
2023-01-28T09:07:26.217Z,11.55
2023-01-28T09:09:53.770Z,16.63
2023-01-28T09:12:21.356Z,9.63
2023-01-28T09:14:48.983Z,10.63
2023-01-28T09:17:16.504Z,10.70
2023-01-28T09:19:43.982Z,9.32
2023-01-28T09:22:11.816Z,9.07
2023-01-28T09:24:39.344Z,14.10
2023-01-28T09:27:07.569Z,10.63
2023-01-28T09:29:35.566Z,8.75
2023-01-28T09:32:03.191Z,12.18
2023-01-28T09:34:30.965Z,7.50
2023-01-28T09:36:58.477Z,6.43
2023-01-28T09:39:28.600Z,5.95
2023-01-28T09:42:09.893Z,6.22
2023-01-28T09:45:01.643Z,9.13
2023-01-28T09:47:31.845Z,7.35
2023-01-28T09:50:03.403Z,8.38
2023-01-28T09:52:34.239Z,9.50
2023-01-28T09:55:26.913Z,10.73
2023-01-28T09:57:55.689Z,13.88
2023-01-28T10:00:29.570Z,11.15
2023-01-28T10:03:18.414Z,13.13
2023-01-28T10:05:51.844Z,6.30
2023-01-28T10:08:43.821Z,8.32
2023-01-28T10:11:17.459Z,8.32
2023-01-28T10:16:18.335Z,9.90
2023-01-28T10:19:27.654Z,10.20
2023-01-28T10:22:03.079Z,12.93
2023-01-28T10:24:41.337Z,10.30
2023-01-28T10:27:22.593Z,11.38
2023-01-28T10:29:51.998Z,9.20
2023-01-28T10:32:30.069Z,11.75
2023-01-28T10:35:04.396Z,10.35
2023-01-28T10:37:35.843Z,10.65
2023-01-28T10:40:05.242Z,12.77
2023-01-28T10:42:35.328Z,10.43
2023-01-28T10:45:07.045Z,13.00
2023-01-28T10:47:46.570Z,12.70
2023-01-28T10:50:26.983Z,11.45
2023-01-28T10:57:04.468Z,10.90
2023-01-28T10:59:41.724Z,9.38
2023-01-28T11:02:24.664Z,9.52
2023-01-28T11:05:15.169Z,8.37
2023-01-28T11:07:43.257Z,7.80
2023-01-28T11:10:32.529Z,7.40
2023-01-28T11:13:02.396Z,7.40
2023-01-28T11:15:29.953Z,10.88
2023-01-28T11:18:00.634Z,8.48
2023-01-28T11:20:31.483Z,8.95
2023-01-28T11:22:59.063Z,11.35
2023-01-28T11:25:26.565Z,7.78
2023-01-28T11:27:55.283Z,11.00
2023-01-28T11:30:34.436Z,5.25
2023-01-28T11:33:14.094Z,12.70
2023-01-28T11:35:41.637Z,9.27
2023-01-28T11:38:20.732Z,9.00
2023-01-28T11:40:55.691Z,6.88
2023-01-28T11:43:26.384Z,13.75
2023-01-28T11:46:05.736Z,8.65
2023-01-28T11:48:55.085Z,9.25
2023-01-28T11:52:04.606Z,7.93
2023-01-28T11:54:34.710Z,9.63
2023-01-28T11:57:23.096Z,8.75
2023-01-28T12:00:16.738Z,8.32
2023-01-28T12:02:51.342Z,11.65
2023-01-28T12:05:24.821Z,10.30
2023-01-28T12:08:12.643Z,6.75
2023-01-28T12:10:55.714Z,5.22
2023-01-28T12:13:32.638Z,8.02
2023-01-28T12:16:27.953Z,15.30
2023-01-28T12:19:10.559Z,7.65
2023-01-28T12:21:41.032Z,9.40
2023-01-28T12:24:14.462Z,8.93
2023-01-28T12:26:51.659Z,6.85
2023-01-28T12:29:30.986Z,5.88
2023-01-28T12:32:17.481Z,9.07
2023-01-28T12:35:07.068Z,7.43
2023-01-28T12:38:03.241Z,7.53
2023-01-28T12:40:59.532Z,7.60
2023-01-28T12:43:45.225Z,6.93
2023-01-28T12:46:31.096Z,4.47
2023-01-28T12:49:05.804Z,17.48
2023-01-28T12:51:56.992Z,4.45
2023-01-28T12:54:33.214Z,7.60
2023-01-28T12:57:02.054Z,5.13
2023-01-28T12:59:48.956Z,7.70
2023-01-28T13:02:25.422Z,5.10
2023-01-28T13:05:16.184Z,6.03
2023-01-28T13:08:04.509Z,3.88
2023-01-28T13:10:46.549Z,3.92
2023-01-28T13:13:20.402Z,8.88
2023-01-28T13:15:48.140Z,7.13
2023-01-28T13:18:32.887Z,6.57
2023-01-28T13:21:02.547Z,6.43
2023-01-28T13:23:42.129Z,8.52
2023-01-28T13:26:36.693Z,6.30
2023-01-28T13:29:24.762Z,7.85
2023-01-28T13:31:54.962Z,6.97
2023-01-28T13:34:43.877Z,14.73
2023-01-28T13:37:32.883Z,17.10
2023-01-28T13:40:27.424Z,8.40
2023-01-28T13:43:05.493Z,7.50
2023-01-28T13:45:34.082Z,9.93
2023-01-28T13:48:31.534Z,11.75
2023-01-28T13:51:00.734Z,8.00
2023-01-28T13:53:45.679Z,6.15
2023-01-28T13:56:25.913Z,8.20
2023-01-28T13:59:02.516Z,6.25
2023-01-28T14:02:11.506Z,8.60
2023-01-28T14:05:04.425Z,6.25
2023-01-28T14:08:01.068Z,7.88
2023-01-28T14:10:39.283Z,9.30
2023-01-28T14:13:37.672Z,6.85
2023-01-28T14:16:23.839Z,6.85
2023-01-28T14:18:52.510Z,7.00
2023-01-28T14:21:22.179Z,7.78
2023-01-28T14:23:53.153Z,7.03
2023-01-28T14:26:32.930Z,9.95
2023-01-28T14:29:31.624Z,8.80
2023-01-28T14:32:04.909Z,7.15
2023-01-28T14:34:35.973Z,8.75
2023-01-28T14:37:12.346Z,20.55
2023-01-28T14:39:46.350Z,8.23
2023-01-28T14:42:27.283Z,6.63
2023-01-28T14:45:09.360Z,10.80
2023-01-28T14:47:43.384Z,7.80
2023-01-28T14:50:23.023Z,12.40
2023-01-28T14:52:50.453Z,11.50
2023-01-28T14:55:33.699Z,7.50
2023-01-28T14:58:19.841Z,10.10
2023-01-28T15:00:56.062Z,8.75
2023-01-28T15:03:25.183Z,8.45
2023-01-28T15:06:30.109Z,9.95
2023-01-28T15:11:36.714Z,6.80
2023-01-28T15:14:06.073Z,7.95
2023-01-28T15:16:35.423Z,9.68
2023-01-28T15:19:03.047Z,11.85
2023-01-28T15:21:30.945Z,9.43
2023-01-28T15:24:00.918Z,10.48
2023-01-28T15:26:31.182Z,11.43
2023-01-28T15:28:59.575Z,10.68
2023-01-28T15:31:35.999Z,12.02
2023-01-28T15:34:13.885Z,10.90
2023-01-28T15:36:42.138Z,7.85
2023-01-28T15:39:21.245Z,10.45
2023-01-28T15:41:51.571Z,9.07
2023-01-28T15:44:37.354Z,9.75
2023-01-28T15:47:16.507Z,8.35
2023-01-28T15:49:48.728Z,9.40
2023-01-28T15:52:16.548Z,6.65
2023-01-28T15:54:50.091Z,9.60
2023-01-28T15:59:51.428Z,6.53
2023-01-28T16:02:25.315Z,5.82
2023-01-28T16:05:08.450Z,6.40
2023-01-28T16:07:45.397Z,6.03
2023-01-28T16:10:22.261Z,7.63
2023-01-28T16:12:54.584Z,8.00
2023-01-28T16:15:22.717Z,6.53
2023-01-28T16:17:53.850Z,8.82
2023-01-28T16:20:25.140Z,5.32
2023-01-28T16:22:57.119Z,4.50
2023-01-28T16:25:32.066Z,4.82
2023-01-28T16:28:01.867Z,6.28
2023-01-28T16:30:30.349Z,6.30
2023-01-28T16:32:58.441Z,5.35
2023-01-28T16:35:42.918Z,5.72
2023-01-28T16:38:19.057Z,6.57
2023-01-28T16:40:47.943Z,9.05
2023-01-28T16:43:16.596Z,4.97
2023-01-28T16:45:44.782Z,6.80
2023-01-28T16:48:13.512Z,5.15
2023-01-28T16:50:43.004Z,5.00
2023-01-28T16:53:39.919Z,4.28
2023-01-28T16:56:19.735Z,6.75
2023-01-28T16:58:57.508Z,5.15
2023-01-28T17:01:25.813Z,7.22
2023-01-28T17:03:53.363Z,8.23
2023-01-28T17:06:20.984Z,7.57
2023-01-28T17:08:48.652Z,5.85
2023-01-28T17:11:16.243Z,9.15
2023-01-28T17:13:43.754Z,10.52
2023-01-28T17:16:11.175Z,11.60
2023-01-28T17:18:38.786Z,10.98
2023-01-28T17:21:09.721Z,12.77
2023-01-28T17:23:37.321Z,11.35
2023-01-28T17:26:10.462Z,9.23
2023-01-28T17:28:38.008Z,12.02
2023-01-28T17:31:12.577Z,7.40
2023-01-28T17:33:41.171Z,5.80
2023-01-28T17:36:10.087Z,6.28
2023-01-28T17:38:37.833Z,8.52
2023-01-28T17:41:08.374Z,6.78
2023-01-28T17:43:35.982Z,8.50
2023-01-28T17:46:11.443Z,6.03
2023-01-28T17:48:39.248Z,8.57
2023-01-28T17:51:07.412Z,6.65
2023-01-28T17:53:34.977Z,4.32
2023-01-28T17:56:02.595Z,5.43
2023-01-28T17:58:30.324Z,4.65
2023-01-28T18:00:57.886Z,7.10
2023-01-28T18:03:25.422Z,6.30
2023-01-28T18:06:00.406Z,4.78
2023-01-28T18:08:27.943Z,3.05
2023-01-28T18:10:55.738Z,5.10
2023-01-28T18:13:23.278Z,4.95
2023-01-28T18:15:50.792Z,5.35
2023-01-28T18:18:18.284Z,4.72
2023-01-28T18:20:46.070Z,8.50
2023-01-28T18:23:13.535Z,6.75
2023-01-28T18:25:41.040Z,5.82
2023-01-28T18:28:08.591Z,4.60
2023-01-28T18:30:36.102Z,5.55
2023-01-28T18:33:03.891Z,6.30
2023-01-28T18:35:31.321Z,5.50
2023-01-28T18:38:02.652Z,5.45
2023-01-28T18:40:30.143Z,4.35
2023-01-28T18:42:57.558Z,7.78
2023-01-28T18:45:25.160Z,8.05
2023-01-28T18:47:52.583Z,7.35
2023-01-28T18:50:20.582Z,6.97
2023-01-28T18:52:48.084Z,7.05
2023-01-28T18:55:15.834Z,8.27
2023-01-28T18:57:43.542Z,6.50
2023-01-28T19:00:11.560Z,5.70
2023-01-28T19:02:39.021Z,8.70
2023-01-28T19:05:06.635Z,7.05
2023-01-28T19:07:34.276Z,7.70
2023-01-28T19:10:02.594Z,10.00
2023-01-28T19:12:31.071Z,8.73
2023-01-28T19:14:58.785Z,9.85
2023-01-28T19:17:26.263Z,11.45
2023-01-28T19:19:53.855Z,10.27
2023-01-28T19:22:21.254Z,10.07
2023-01-28T19:24:48.817Z,9.80
2023-01-28T19:27:16.268Z,11.55
2023-01-28T19:29:43.723Z,11.68
2023-01-28T19:32:11.285Z,11.25
2023-01-28T19:34:38.824Z,11.48
2023-01-28T19:37:06.245Z,15.25
2023-01-28T19:39:33.781Z,14.35
2023-01-28T19:42:02.365Z,12.35
2023-01-28T19:44:30.106Z,15.65
2023-01-28T19:46:57.573Z,14.00
2023-01-28T19:49:25.103Z,13.23
2023-01-28T19:51:52.582Z,11.90
2023-01-28T19:54:20.122Z,11.48
2023-01-28T19:56:47.583Z,14.30
2023-01-28T19:59:15.312Z,14.73
2023-01-28T20:01:43.136Z,17.88
2023-01-28T20:04:10.702Z,16.17
2023-01-28T20:06:38.347Z,14.07
2023-01-28T20:09:15.130Z,12.93
2023-01-28T20:11:42.635Z,12.57
2023-01-28T20:14:10.242Z,14.10
2023-01-28T20:16:37.815Z,11.57
2023-01-28T20:19:08.123Z,15.57
2023-01-28T20:21:36.191Z,15.25
2023-01-28T20:24:05.021Z,13.75
2023-01-28T20:26:36.065Z,14.98
2023-01-28T20:29:15.420Z,11.75
2023-01-28T20:31:43.085Z,14.32
2023-01-28T20:34:16.824Z,17.98
2023-01-28T20:36:44.847Z,15.68
2023-01-28T20:39:13.573Z,15.95
2023-01-28T20:41:41.128Z,15.82
2023-01-28T20:44:08.571Z,14.35
2023-01-28T20:46:37.313Z,16.23
2023-01-28T20:49:08.234Z,15.27
2023-01-28T20:51:36.694Z,16.25
2023-01-28T20:54:05.323Z,15.88
2023-01-28T20:56:32.866Z,17.58
2023-01-28T20:59:02.862Z,23.60
2023-01-28T21:01:36.791Z,21.80
2023-01-28T21:04:10.663Z,20.20
2023-01-28T21:06:38.605Z,21.42
2023-01-28T21:09:06.382Z,22.35
2023-01-28T21:11:34.298Z,20.08
2023-01-28T21:14:01.755Z,19.92
2023-01-28T21:16:29.304Z,23.92
2023-01-28T21:18:56.967Z,22.95
2023-01-28T21:21:27.163Z,23.40
2023-01-28T21:23:57.868Z,25.13
2023-01-28T21:26:26.307Z,23.73
2023-01-28T21:28:53.722Z,26.77
2023-01-28T21:31:23.577Z,26.27
2023-01-28T21:33:52.762Z,28.15
2023-01-28T21:36:20.701Z,26.50
2023-01-28T21:38:58.746Z,25.92
2023-01-28T21:41:27.705Z,26.00
2023-01-28T21:43:57.311Z,26.17
2023-01-28T21:46:28.153Z,29.15
2023-01-28T21:48:57.568Z,27.08
2023-01-28T21:51:46.448Z,29.27
2023-01-28T21:54:19.163Z,26.80
2023-01-28T21:56:48.643Z,28.67
2023-01-28T21:59:29.749Z,28.02
2023-01-28T22:01:59.839Z,25.67
2023-01-28T22:04:31.213Z,23.52
2023-01-28T22:06:59.749Z,24.33
2023-01-28T22:09:28.734Z,25.52
2023-01-28T22:11:56.374Z,26.38
2023-01-28T22:14:24.010Z,24.70
2023-01-28T22:16:51.957Z,28.08
2023-01-28T22:19:19.673Z,25.42
2023-01-28T22:21:48.277Z,22.58
2023-01-28T22:24:24.610Z,23.77
2023-01-28T22:26:53.633Z,24.25
2023-01-28T22:29:24.905Z,25.63
2023-01-28T22:31:54.047Z,25.38
2023-01-28T22:34:22.451Z,23.48
2023-01-28T22:36:51.360Z,24.30
2023-01-28T22:39:21.582Z,22.33
2023-01-28T22:41:49.329Z,22.42
2023-01-28T22:44:16.906Z,23.77
2023-01-28T22:46:44.524Z,25.17
2023-01-28T22:49:12.421Z,24.98
2023-01-28T22:51:39.996Z,24.90
2023-01-28T22:54:08.164Z,22.75
2023-01-28T22:56:35.833Z,22.48
2023-01-28T22:59:04.125Z,21.83
2023-01-28T23:01:32.758Z,23.88
2023-01-28T23:04:00.434Z,24.15
2023-01-28T23:06:28.509Z,21.27
2023-01-28T23:08:56.606Z,23.70
2023-01-28T23:11:25.688Z,23.63
2023-01-28T23:14:18.376Z,23.75
2023-01-28T23:17:05.247Z,26.55
2023-01-28T23:19:51.800Z,24.02
2023-01-28T23:22:48.553Z,24.42
2023-01-28T23:25:16.962Z,21.88
2023-01-28T23:27:44.705Z,22.38
2023-01-28T23:30:12.920Z,20.80
2023-01-28T23:32:43.975Z,20.50
2023-01-28T23:35:12.283Z,19.77
2023-01-28T23:37:39.770Z,18.67
2023-01-28T23:40:08.243Z,18.92
2023-01-28T23:42:35.716Z,20.27
2023-01-28T23:45:03.800Z,20.50
2023-01-28T23:47:31.598Z,20.20
2023-01-28T23:49:59.529Z,22.08
2023-01-28T23:52:26.962Z,19.70
2023-01-28T23:54:54.592Z,18.55
2023-01-28T23:57:22.054Z,18.88
2023-01-28T23:59:49.523Z,19.95
